createdAt,value
2016-12-17T00:00:13.887Z,17.22
2016-12-17T00:01:13.580Z,17.22
2016-12-17T00:02:15.841Z,17.22
2016-12-17T00:03:10.194Z,17.22
2016-12-17T00:04:12.220Z,17.23
2016-12-17T00:05:13.016Z,17.22
2016-12-17T00:06:13.972Z,17.23
2016-12-17T00:07:12.897Z,17.23
2016-12-17T00:08:12.890Z,17.24
2016-12-17T00:09:13.729Z,17.23
2016-12-17T00:10:12.366Z,17.25
2016-12-17T00:11:12.846Z,17.24
2016-12-17T00:12:12.787Z,17.25
2016-12-17T00:13:13.727Z,17.25
2016-12-17T00:14:13.130Z,17.29
2016-12-17T00:15:12.716Z,17.25
2016-12-17T00:16:12.658Z,17.25
2016-12-17T00:17:12.709Z,17.26
2016-12-17T00:18:15.596Z,17.25
2016-12-17T00:19:12.991Z,17.25
2016-12-17T00:20:12.498Z,17.24
2016-12-17T00:21:13.427Z,17.26
2016-12-17T00:22:12.184Z,17.26
2016-12-17T00:23:13.290Z,17.43
2016-12-17T00:24:13.212Z,17.31
2016-12-17T00:25:13.069Z,17.28
2016-12-17T00:26:12.699Z,17.79
2016-12-17T00:27:12.877Z,17.52
2016-12-17T00:28:13.500Z,17.34
2016-12-17T00:29:15.133Z,17.83
2016-12-17T00:30:13.147Z,17.87
2016-12-17T00:31:13.017Z,17.87
2016-12-17T00:32:12.863Z,17.89
2016-12-17T00:33:13.633Z,17.52
2016-12-17T00:34:12.864Z,17.41
2016-12-17T00:35:11.605Z,17.31
2016-12-17T00:36:12.534Z,17.30
2016-12-17T00:37:14.955Z,17.29
2016-12-17T00:38:12.682Z,17.28
2016-12-17T00:39:13.864Z,17.30
2016-12-17T00:40:13.581Z,17.28
2016-12-17T00:41:14.058Z,17.29
2016-12-17T00:42:13.650Z,17.32
2016-12-17T00:43:10.723Z,17.26
2016-12-17T00:44:12.882Z,17.27
2016-12-17T00:45:13.294Z,17.31
2016-12-17T00:46:14.069Z,17.26
2016-12-17T00:47:11.566Z,17.27
2016-12-17T00:48:13.049Z,17.26
2016-12-17T00:49:12.952Z,17.27
2016-12-17T00:50:12.931Z,17.27
2016-12-17T00:51:20.399Z,17.27
2016-12-17T00:52:13.680Z,17.27
2016-12-17T00:53:11.932Z,17.27
2016-12-17T00:54:16.153Z,17.42
2016-12-17T00:55:13.851Z,17.32
2016-12-17T00:56:12.542Z,17.29
2016-12-17T00:57:12.859Z,17.28
2016-12-17T00:58:12.815Z,17.28
2016-12-17T00:59:10.129Z,17.27
2016-12-17T01:00:13.301Z,17.26
2016-12-17T01:01:12.897Z,17.74
2016-12-17T01:02:10.418Z,17.86
2016-12-17T01:03:14.042Z,17.35
2016-12-17T01:04:12.998Z,17.32
2016-12-17T01:05:13.944Z,17.30
2016-12-17T01:06:13.907Z,17.29
2016-12-17T01:07:14.067Z,17.30
2016-12-17T01:08:13.974Z,17.28
2016-12-17T01:09:14.707Z,17.28
2016-12-17T01:10:11.333Z,17.28
2016-12-17T01:11:12.497Z,17.28
2016-12-17T01:12:19.318Z,17.28
2016-12-17T01:13:13.406Z,17.28
2016-12-17T01:14:13.285Z,17.28
2016-12-17T01:15:12.300Z,17.28
2016-12-17T01:16:13.643Z,17.28
2016-12-17T01:17:13.921Z,17.33
2016-12-17T01:18:14.763Z,17.28
2016-12-17T01:19:13.225Z,17.35
2016-12-17T01:20:14.471Z,17.28
2016-12-17T01:21:12.420Z,17.29
2016-12-17T01:22:13.822Z,17.29
2016-12-17T01:23:13.202Z,17.30
2016-12-17T01:24:15.064Z,17.28
2016-12-17T01:25:12.827Z,17.29
2016-12-17T01:26:11.639Z,17.29
2016-12-17T01:27:13.526Z,17.31
2016-12-17T01:28:15.511Z,17.82
2016-12-17T01:29:13.619Z,17.87
2016-12-17T01:30:13.065Z,17.90
2016-12-17T01:31:13.581Z,17.91
2016-12-17T01:32:13.302Z,17.91
2016-12-17T01:33:14.301Z,17.38
2016-12-17T01:34:14.036Z,17.35
2016-12-17T01:35:13.750Z,17.32
2016-12-17T01:36:14.547Z,17.31
2016-12-17T01:37:12.709Z,17.30
2016-12-17T01:38:13.064Z,17.30
2016-12-17T01:39:13.767Z,17.29
2016-12-17T01:40:13.180Z,17.29
2016-12-17T01:41:15.111Z,17.29
2016-12-17T01:42:13.832Z,17.30
2016-12-17T01:43:12.806Z,17.82
2016-12-17T01:44:10.193Z,17.88
2016-12-17T01:45:18.481Z,17.92
2016-12-17T01:46:13.820Z,17.92
2016-12-17T01:47:12.775Z,17.93
2016-12-17T01:48:10.477Z,17.93
2016-12-17T01:49:12.872Z,17.92
2016-12-17T01:50:13.829Z,17.41
2016-12-17T01:51:13.385Z,17.36
2016-12-17T01:52:13.386Z,17.32
2016-12-17T01:53:12.005Z,17.30
2016-12-17T01:54:13.144Z,17.85
2016-12-17T01:55:15.097Z,17.88
2016-12-17T01:56:11.587Z,17.90
2016-12-17T01:57:13.497Z,17.92
2016-12-17T01:58:13.549Z,17.92
2016-12-17T01:59:12.976Z,17.40
2016-12-17T02:00:13.680Z,17.87
2016-12-17T02:01:15.161Z,17.91
2016-12-17T02:02:13.864Z,17.92
2016-12-17T02:03:15.164Z,17.94
2016-12-17T02:04:14.942Z,17.95
2016-12-17T02:05:12.785Z,17.57
2016-12-17T02:06:13.766Z,17.43
2016-12-17T02:07:10.434Z,17.36
2016-12-17T02:08:13.026Z,17.33
2016-12-17T02:09:13.519Z,17.32
2016-12-17T02:10:14.841Z,17.32
2016-12-17T02:11:13.500Z,17.30
2016-12-17T02:12:13.915Z,17.30
2016-12-17T02:13:13.674Z,17.30
2016-12-17T02:14:14.149Z,17.31
2016-12-17T02:15:13.434Z,17.29
2016-12-17T02:16:15.915Z,17.29
2016-12-17T02:17:10.579Z,17.29
2016-12-17T02:18:13.084Z,17.30
2016-12-17T02:19:13.619Z,17.34
2016-12-17T02:20:13.096Z,17.30
2016-12-17T02:21:14.012Z,17.30
2016-12-17T02:22:13.375Z,17.30
2016-12-17T02:23:10.961Z,17.30
2016-12-17T02:24:13.290Z,17.30
2016-12-17T02:25:12.949Z,17.83
2016-12-17T02:26:13.346Z,17.36
2016-12-17T02:27:12.789Z,17.33
2016-12-17T02:28:12.873Z,17.32
2016-12-17T02:29:11.381Z,17.31
2016-12-17T02:30:13.107Z,17.85
2016-12-17T02:31:15.778Z,17.90
2016-12-17T02:32:13.444Z,17.92
2016-12-17T02:33:13.341Z,17.39
2016-12-17T02:34:14.067Z,17.35
2016-12-17T02:35:10.357Z,17.32
2016-12-17T02:36:12.126Z,17.31
2016-12-17T02:37:12.842Z,17.83
2016-12-17T02:38:14.329Z,17.89
2016-12-17T02:39:13.051Z,17.92
2016-12-17T02:40:13.771Z,17.89
2016-12-17T02:41:12.569Z,17.94
2016-12-17T02:42:11.272Z,17.94
2016-12-17T02:43:14.069Z,17.96
2016-12-17T02:44:13.032Z,17.95
2016-12-17T02:45:13.003Z,17.95
2016-12-17T02:46:09.895Z,17.96
2016-12-17T02:47:12.463Z,17.42
2016-12-17T02:48:13.540Z,17.37
2016-12-17T02:49:12.104Z,17.35
2016-12-17T02:50:13.794Z,17.34
2016-12-17T02:51:15.764Z,17.33
2016-12-17T02:52:13.813Z,17.32
2016-12-17T02:53:13.005Z,17.31
2016-12-17T02:54:13.718Z,17.31
2016-12-17T02:55:12.972Z,17.31
2016-12-17T02:56:12.683Z,17.31
2016-12-17T02:57:12.378Z,17.31
2016-12-17T02:58:14.619Z,17.31
2016-12-17T02:59:12.691Z,17.33
2016-12-17T03:00:13.123Z,17.36
2016-12-17T03:01:12.986Z,17.31
2016-12-17T03:02:13.358Z,17.34
2016-12-17T03:03:13.558Z,17.32
2016-12-17T03:04:10.285Z,17.30
2016-12-17T03:05:12.514Z,17.31
2016-12-17T03:06:13.654Z,17.30
2016-12-17T03:07:09.500Z,17.30
2016-12-17T03:08:14.059Z,17.31
2016-12-17T03:09:13.374Z,17.31
2016-12-17T03:10:14.252Z,17.30
2016-12-17T03:11:14.284Z,17.30
2016-12-17T03:12:11.608Z,17.30
2016-12-17T03:13:13.062Z,17.31
2016-12-17T03:14:12.709Z,17.30
2016-12-17T03:15:12.589Z,17.31
2016-12-17T03:16:12.244Z,17.31
2016-12-17T03:17:13.839Z,17.33
2016-12-17T03:18:12.801Z,17.31
2016-12-17T03:19:13.540Z,17.30
2016-12-17T03:20:13.772Z,17.30
2016-12-17T03:21:12.644Z,17.30
2016-12-17T03:22:14.504Z,17.30
2016-12-17T03:23:12.175Z,17.30
2016-12-17T03:24:12.941Z,17.31
2016-12-17T03:25:11.379Z,17.30
2016-12-17T03:26:12.993Z,17.30
2016-12-17T03:27:13.420Z,17.32
2016-12-17T03:28:13.166Z,17.30
2016-12-17T03:29:13.292Z,17.31
2016-12-17T03:30:13.696Z,17.33
2016-12-17T03:31:12.707Z,17.30
2016-12-17T03:32:14.413Z,17.30
2016-12-17T03:33:13.440Z,17.30
2016-12-17T03:34:13.363Z,17.30
2016-12-17T03:35:12.977Z,17.28
2016-12-17T03:36:13.500Z,17.30
2016-12-17T03:37:16.034Z,17.30
2016-12-17T03:38:13.952Z,17.30
2016-12-17T03:39:14.778Z,17.29
2016-12-17T03:40:13.344Z,17.29
2016-12-17T03:41:10.864Z,17.31
2016-12-17T03:42:13.326Z,17.31
2016-12-17T03:43:13.441Z,17.31
2016-12-17T03:44:12.115Z,17.31
2016-12-17T03:45:13.140Z,17.31
2016-12-17T03:46:13.915Z,17.31
2016-12-17T03:47:12.923Z,17.32
2016-12-17T03:48:12.666Z,17.32
2016-12-17T03:49:10.884Z,17.31
2016-12-17T03:50:14.149Z,17.31
2016-12-17T03:51:13.169Z,17.31
2016-12-17T03:52:13.615Z,17.30
2016-12-17T03:53:13.523Z,17.30
2016-12-17T03:54:13.350Z,17.30
2016-12-17T03:55:14.014Z,17.29
2016-12-17T03:56:14.674Z,17.30
2016-12-17T03:57:13.447Z,17.34
2016-12-17T03:58:16.147Z,17.30
2016-12-17T03:59:13.344Z,17.35
2016-12-17T04:00:15.837Z,17.36
2016-12-17T04:01:13.575Z,17.30
2016-12-17T04:02:12.929Z,17.32
2016-12-17T04:03:13.860Z,17.34
2016-12-17T04:04:12.961Z,17.29
2016-12-17T04:05:13.507Z,17.30
2016-12-17T04:06:13.463Z,17.30
2016-12-17T04:07:14.173Z,17.30
2016-12-17T04:08:12.717Z,17.30
2016-12-17T04:09:14.426Z,17.30
2016-12-17T04:10:14.386Z,17.29
2016-12-17T04:11:13.782Z,17.30
2016-12-17T04:12:11.303Z,17.30
2016-12-17T04:13:12.964Z,17.31
2016-12-17T04:14:14.648Z,17.30
2016-12-17T04:15:13.663Z,17.31
2016-12-17T04:16:13.772Z,17.30
2016-12-17T04:17:14.204Z,17.32
2016-12-17T04:18:13.174Z,17.30
2016-12-17T04:19:13.270Z,17.30
2016-12-17T04:20:13.286Z,17.30
2016-12-17T04:21:13.435Z,17.30
2016-12-17T04:22:13.545Z,17.33
2016-12-17T04:23:12.398Z,17.82
2016-12-17T04:24:12.924Z,17.35
2016-12-17T04:25:13.104Z,17.32
2016-12-17T04:26:13.136Z,17.31
2016-12-17T04:27:14.312Z,17.29
2016-12-17T04:28:17.061Z,17.30
2016-12-17T04:29:13.798Z,17.29
2016-12-17T04:30:13.045Z,17.29
2016-12-17T04:31:13.647Z,17.30
2016-12-17T04:32:13.377Z,17.32
2016-12-17T04:33:13.387Z,17.31
2016-12-17T04:34:14.183Z,17.30
2016-12-17T04:35:13.253Z,17.35
2016-12-17T04:36:13.215Z,17.30
2016-12-17T04:37:11.860Z,17.29
2016-12-17T04:38:14.541Z,17.82
2016-12-17T04:39:11.904Z,17.87
2016-12-17T04:40:13.112Z,17.89
2016-12-17T04:41:15.159Z,17.92
2016-12-17T04:42:13.874Z,17.92
2016-12-17T04:43:12.498Z,17.92
2016-12-17T04:44:14.820Z,17.94
2016-12-17T04:45:12.383Z,17.93
2016-12-17T04:46:13.414Z,17.94
2016-12-17T04:47:13.467Z,17.58
2016-12-17T04:48:13.246Z,17.40
2016-12-17T04:49:12.673Z,17.35
2016-12-17T04:50:12.594Z,17.32
2016-12-17T04:51:10.697Z,17.31
2016-12-17T04:52:13.141Z,17.31
2016-12-17T04:53:13.842Z,17.31
2016-12-17T04:54:12.873Z,17.30
2016-12-17T04:55:13.008Z,17.30
2016-12-17T04:56:14.108Z,17.30
2016-12-17T04:57:13.187Z,17.30
2016-12-17T04:58:13.882Z,17.30
2016-12-17T04:59:14.060Z,17.30
2016-12-17T05:00:12.883Z,17.31
2016-12-17T05:01:12.444Z,17.30
2016-12-17T05:02:14.189Z,17.30
2016-12-17T05:03:13.330Z,17.30
2016-12-17T05:04:11.860Z,17.30
2016-12-17T05:05:14.617Z,17.83
2016-12-17T05:06:18.186Z,17.87
2016-12-17T05:07:14.064Z,17.38
2016-12-17T05:08:13.473Z,17.36
2016-12-17T05:09:14.096Z,17.32
2016-12-17T05:10:12.952Z,17.31
2016-12-17T05:11:13.413Z,17.31
2016-12-17T05:12:13.992Z,17.31
2016-12-17T05:13:12.936Z,17.31
2016-12-17T05:14:12.850Z,17.31
2016-12-17T05:15:12.366Z,17.30
2016-12-17T05:16:14.055Z,17.31
2016-12-17T05:17:13.339Z,17.31
2016-12-17T05:18:13.910Z,17.35
2016-12-17T05:19:13.503Z,17.83
2016-12-17T05:20:16.019Z,17.90
2016-12-17T05:21:13.798Z,17.92
2016-12-17T05:22:13.947Z,17.94
2016-12-17T05:23:13.470Z,17.93
2016-12-17T05:24:16.560Z,17.94
2016-12-17T05:25:18.705Z,17.95
2016-12-17T05:26:14.728Z,17.94
2016-12-17T05:27:13.240Z,17.95
2016-12-17T05:28:13.249Z,17.95
2016-12-17T05:29:14.183Z,17.94
2016-12-17T05:30:13.494Z,17.94
2016-12-17T05:31:15.392Z,17.65
2016-12-17T05:32:17.052Z,17.95
2016-12-17T05:33:13.060Z,17.94
2016-12-17T05:34:13.023Z,17.42
2016-12-17T05:35:12.739Z,17.36
2016-12-17T05:36:12.418Z,17.33
2016-12-17T05:37:13.035Z,17.33
2016-12-17T05:38:13.189Z,17.31
2016-12-17T05:39:13.584Z,17.32
2016-12-17T05:40:11.218Z,17.30
2016-12-17T05:41:13.026Z,17.31
2016-12-17T05:42:13.253Z,17.30
2016-12-17T05:43:12.793Z,17.30
2016-12-17T05:44:13.134Z,17.29
2016-12-17T05:45:10.022Z,17.29
2016-12-17T05:46:13.062Z,17.30
2016-12-17T05:47:11.256Z,17.30
2016-12-17T05:48:13.118Z,17.30
2016-12-17T05:49:13.622Z,17.33
2016-12-17T05:50:13.390Z,17.82
2016-12-17T05:51:14.308Z,17.89
2016-12-17T05:52:13.229Z,17.57
2016-12-17T05:53:13.096Z,17.37
2016-12-17T05:54:13.185Z,17.33
2016-12-17T05:55:13.645Z,17.33
2016-12-17T05:56:12.148Z,17.32
2016-12-17T05:57:13.304Z,17.32
2016-12-17T05:58:12.787Z,17.31
2016-12-17T05:59:13.269Z,17.31
2016-12-17T06:00:10.822Z,17.30
2016-12-17T06:01:14.191Z,17.31
2016-12-17T06:02:13.274Z,17.30
2016-12-17T06:03:13.344Z,17.31
2016-12-17T06:04:13.440Z,17.31
2016-12-17T06:05:13.150Z,17.29
2016-12-17T06:06:11.243Z,17.31
2016-12-17T06:07:12.691Z,17.30
2016-12-17T06:08:12.775Z,17.30
2016-12-17T06:09:13.055Z,17.31
2016-12-17T06:10:12.922Z,17.30
2016-12-17T06:11:13.855Z,17.30
2016-12-17T06:12:13.268Z,17.34
2016-12-17T06:13:13.520Z,17.82
2016-12-17T06:14:13.351Z,17.88
2016-12-17T06:15:11.710Z,17.91
2016-12-17T06:16:14.563Z,17.93
2016-12-17T06:17:13.332Z,17.94
2016-12-17T06:18:13.350Z,17.60
2016-12-17T06:19:11.495Z,17.40
2016-12-17T06:20:13.989Z,17.35
2016-12-17T06:21:13.246Z,17.32
2016-12-17T06:22:13.716Z,17.32
2016-12-17T06:23:13.274Z,17.83
2016-12-17T06:24:13.728Z,17.37
2016-12-17T06:25:13.220Z,17.51
2016-12-17T06:26:10.295Z,17.36
2016-12-17T06:27:13.650Z,17.37
2016-12-17T06:28:12.985Z,17.32
2016-12-17T06:29:13.015Z,17.31
2016-12-17T06:30:11.557Z,17.31
2016-12-17T06:31:13.707Z,17.85
2016-12-17T06:32:13.260Z,17.37
2016-12-17T06:33:13.237Z,17.87
2016-12-17T06:34:13.065Z,17.92
2016-12-17T06:35:13.890Z,17.94
2016-12-17T06:36:12.571Z,17.95
2016-12-17T06:37:13.001Z,17.93
2016-12-17T06:38:13.480Z,17.41
2016-12-17T06:39:10.585Z,17.35
2016-12-17T06:40:12.219Z,17.34
2016-12-17T06:41:13.607Z,17.37
2016-12-17T06:42:12.750Z,17.32
2016-12-17T06:43:12.974Z,17.31
2016-12-17T06:44:13.329Z,17.31
2016-12-17T06:45:11.591Z,17.30
2016-12-17T06:46:14.121Z,17.30
2016-12-17T06:47:11.920Z,17.30
2016-12-17T06:48:10.735Z,17.83
2016-12-17T06:49:13.459Z,17.88
2016-12-17T06:50:14.389Z,17.92
2016-12-17T06:51:13.365Z,17.92
2016-12-17T06:52:11.373Z,17.41
2016-12-17T06:53:12.828Z,17.35
2016-12-17T06:54:13.617Z,17.33
2016-12-17T06:55:13.157Z,17.32
2016-12-17T06:56:11.925Z,17.30
2016-12-17T06:57:14.086Z,17.83
2016-12-17T06:58:12.870Z,17.87
2016-12-17T06:59:13.428Z,17.91
2016-12-17T07:00:14.159Z,17.57
2016-12-17T07:01:12.451Z,17.39
2016-12-17T07:02:11.769Z,17.33
2016-12-17T07:03:13.165Z,17.84
2016-12-17T07:04:13.352Z,17.90
2016-12-17T07:05:11.626Z,17.91
2016-12-17T07:06:12.535Z,17.91
2016-12-17T07:07:13.405Z,17.40
2016-12-17T07:08:13.842Z,17.34
2016-12-17T07:09:12.507Z,17.32
2016-12-17T07:10:13.538Z,17.31
2016-12-17T07:11:13.648Z,17.37
2016-12-17T07:12:12.855Z,17.30
2016-12-17T07:13:12.597Z,17.30
2016-12-17T07:14:13.046Z,17.30
2016-12-17T07:15:13.354Z,17.29
2016-12-17T07:16:13.847Z,17.29
2016-12-17T07:17:12.818Z,17.29
2016-12-17T07:18:13.622Z,17.29
2016-12-17T07:19:10.094Z,17.28
2016-12-17T07:20:13.101Z,17.28
2016-12-17T07:21:12.715Z,17.29
2016-12-17T07:22:12.985Z,17.30
2016-12-17T07:23:12.717Z,17.29
2016-12-17T07:24:12.714Z,17.28
2016-12-17T07:25:13.419Z,17.31
2016-12-17T07:26:13.121Z,17.28
2016-12-17T07:27:14.339Z,17.28
2016-12-17T07:28:14.133Z,17.28
2016-12-17T07:29:12.105Z,17.28
2016-12-17T07:30:09.562Z,17.80
2016-12-17T07:31:14.287Z,17.34
2016-12-17T07:32:13.340Z,17.31
2016-12-17T07:33:13.549Z,17.34
2016-12-17T07:34:13.320Z,17.30
2016-12-17T07:35:12.833Z,17.29
2016-12-17T07:36:13.360Z,17.28
2016-12-17T07:37:13.318Z,17.29
2016-12-17T07:38:13.329Z,17.29
2016-12-17T07:39:14.166Z,17.28
2016-12-17T07:40:13.610Z,17.28
2016-12-17T07:41:13.413Z,17.28
2016-12-17T07:42:10.977Z,17.28
2016-12-17T07:43:13.403Z,17.37
2016-12-17T07:44:15.317Z,17.81
2016-12-17T07:45:14.065Z,17.88
2016-12-17T07:46:13.594Z,17.90
2016-12-17T07:47:13.039Z,17.54
2016-12-17T07:48:13.368Z,17.37
2016-12-17T07:49:12.454Z,17.32
2016-12-17T07:50:12.983Z,17.83
2016-12-17T07:51:13.531Z,17.87
2016-12-17T07:52:13.505Z,17.90
2016-12-17T07:53:12.972Z,17.54
2016-12-17T07:54:13.376Z,17.37
2016-12-17T07:55:14.261Z,17.33
2016-12-17T07:56:14.211Z,17.31
2016-12-17T07:57:15.108Z,17.29
2016-12-17T07:58:12.654Z,17.36
2016-12-17T07:59:13.104Z,17.29
2016-12-17T08:00:13.070Z,17.29
2016-12-17T08:01:13.879Z,17.29
2016-12-17T08:02:13.378Z,17.31
2016-12-17T08:03:14.434Z,17.29
2016-12-17T08:04:13.206Z,17.29
2016-12-17T08:05:13.148Z,17.28
2016-12-17T08:06:13.260Z,17.29
2016-12-17T08:07:13.241Z,17.28
2016-12-17T08:08:13.208Z,17.29
2016-12-17T08:09:13.204Z,17.29
2016-12-17T08:10:12.739Z,17.29
2016-12-17T08:11:12.754Z,17.28
2016-12-17T08:12:12.728Z,17.82
2016-12-17T08:13:13.495Z,17.53
2016-12-17T08:14:10.380Z,17.36
2016-12-17T08:15:13.686Z,17.32
2016-12-17T08:16:11.115Z,17.30
2016-12-17T08:17:11.947Z,17.82
2016-12-17T08:18:11.397Z,17.87
2016-12-17T08:19:13.633Z,17.90
2016-12-17T08:20:11.309Z,17.38
2016-12-17T08:21:13.120Z,17.34
2016-12-17T08:22:12.808Z,17.32
2016-12-17T08:23:09.458Z,17.30
2016-12-17T08:24:13.225Z,17.30
2016-12-17T08:25:12.018Z,17.29
2016-12-17T08:26:12.320Z,17.29
2016-12-17T08:27:09.607Z,17.29
2016-12-17T08:28:13.125Z,17.29
2016-12-17T08:29:11.795Z,17.29
2016-12-17T08:30:11.432Z,17.28
2016-12-17T08:31:13.419Z,17.80
2016-12-17T08:32:13.840Z,17.88
2016-12-17T08:33:13.859Z,17.90
2016-12-17T08:34:15.337Z,17.91
2016-12-17T08:35:13.668Z,17.91
2016-12-17T08:36:12.300Z,17.92
2016-12-17T08:37:15.078Z,17.90
2016-12-17T08:38:14.079Z,17.39
2016-12-17T08:39:14.067Z,17.34
2016-12-17T08:40:14.989Z,17.33
2016-12-17T08:41:12.948Z,17.31
2016-12-17T08:42:12.163Z,17.29
2016-12-17T08:43:13.535Z,17.84
2016-12-17T08:44:14.102Z,17.91
2016-12-17T08:45:13.119Z,17.93
2016-12-17T08:46:13.260Z,17.93
2016-12-17T08:47:12.994Z,17.85
2016-12-17T08:48:14.670Z,17.93
2016-12-17T08:49:13.234Z,17.94
2016-12-17T08:50:14.148Z,17.58
2016-12-17T08:51:13.500Z,17.43
2016-12-17T08:52:13.212Z,17.89
2016-12-17T08:53:14.043Z,17.93
2016-12-17T08:54:12.728Z,17.41
2016-12-17T08:55:13.947Z,17.37
2016-12-17T08:56:13.308Z,17.33
2016-12-17T08:57:14.264Z,17.32
2016-12-17T08:58:10.098Z,17.31
2016-12-17T08:59:13.173Z,17.31
2016-12-17T09:00:13.181Z,17.30
2016-12-17T09:01:10.296Z,17.30
2016-12-17T09:02:15.218Z,17.31
2016-12-17T09:03:13.617Z,17.29
2016-12-17T09:04:13.518Z,17.31
2016-12-17T09:05:13.703Z,17.30
2016-12-17T09:06:13.209Z,17.30
2016-12-17T09:07:13.897Z,17.29
2016-12-17T09:08:12.911Z,17.30
2016-12-17T09:09:13.525Z,17.32
2016-12-17T09:10:15.723Z,17.30
2016-12-17T09:11:12.987Z,17.29
2016-12-17T09:12:10.620Z,17.29
2016-12-17T09:13:14.506Z,17.29
2016-12-17T09:14:13.708Z,17.29
2016-12-17T09:15:12.751Z,17.29
2016-12-17T09:16:13.276Z,17.30
2016-12-17T09:17:16.105Z,16.40
2016-12-17T09:18:13.117Z,14.30
2016-12-17T09:19:14.339Z,12.52
2016-12-17T09:20:13.356Z,11.57
2016-12-17T09:21:11.400Z,11.02
2016-12-17T09:22:12.984Z,10.74
2016-12-17T09:23:13.289Z,10.68
2016-12-17T09:24:08.945Z,11.14
2016-12-17T09:25:11.562Z,11.93
2016-12-17T09:26:13.537Z,13.22
2016-12-17T09:27:10.100Z,13.90
2016-12-17T09:28:12.905Z,14.50
2016-12-17T09:29:12.584Z,14.94
2016-12-17T09:30:12.795Z,14.78
2016-12-17T09:31:12.934Z,15.04
2016-12-17T09:32:14.352Z,15.25
2016-12-17T09:33:13.544Z,15.43
2016-12-17T09:34:15.246Z,15.59
2016-12-17T09:35:12.856Z,15.72
2016-12-17T09:36:11.499Z,15.82
2016-12-17T09:37:13.045Z,15.93
2016-12-17T09:38:14.592Z,16.00
2016-12-17T09:39:12.550Z,16.08
2016-12-17T09:40:10.687Z,16.12
2016-12-17T09:41:13.407Z,16.39
2016-12-17T09:42:13.145Z,16.29
2016-12-17T09:43:12.728Z,16.30
2016-12-17T09:44:13.227Z,16.32
2016-12-17T09:45:15.576Z,16.34
2016-12-17T09:46:13.429Z,16.37
2016-12-17T09:47:13.052Z,16.39
2016-12-17T09:48:13.226Z,16.41
2016-12-17T09:49:13.438Z,16.47
2016-12-17T09:50:14.521Z,16.44
2016-12-17T09:51:13.059Z,16.45
2016-12-17T09:52:13.034Z,16.46
2016-12-17T09:53:12.943Z,16.47
2016-12-17T09:54:13.433Z,16.48
2016-12-17T09:55:13.088Z,16.49
2016-12-17T09:56:20.125Z,16.50
2016-12-17T09:57:11.175Z,16.50
2016-12-17T09:58:12.549Z,16.52
2016-12-17T09:59:13.409Z,16.55
2016-12-17T10:00:12.771Z,16.52
2016-12-17T10:01:11.249Z,16.54
2016-12-17T10:02:13.032Z,17.10
2016-12-17T10:03:13.789Z,17.15
2016-12-17T10:04:13.762Z,17.05
2016-12-17T10:05:13.994Z,17.20
2016-12-17T10:06:13.539Z,17.20
2016-12-17T10:07:13.224Z,17.21
2016-12-17T10:08:10.136Z,17.24
2016-12-17T10:09:12.854Z,17.24
2016-12-17T10:10:13.908Z,17.23
2016-12-17T10:11:13.024Z,16.88
2016-12-17T10:12:12.298Z,16.70
2016-12-17T10:13:14.509Z,17.19
2016-12-17T10:14:14.472Z,16.69
2016-12-17T10:15:13.120Z,16.65
2016-12-17T10:16:11.166Z,16.64
2016-12-17T10:17:13.665Z,17.16
2016-12-17T10:18:13.399Z,17.22
2016-12-17T10:19:14.337Z,17.24
2016-12-17T10:20:11.592Z,17.26
2016-12-17T10:21:13.669Z,16.74
2016-12-17T10:22:12.814Z,16.67
2016-12-17T10:23:14.997Z,16.66
2016-12-17T10:24:13.261Z,16.65
2016-12-17T10:25:14.880Z,16.65
2016-12-17T10:26:12.956Z,16.65
2016-12-17T10:27:13.331Z,16.64
2016-12-17T10:28:12.824Z,16.65
2016-12-17T10:29:09.386Z,16.64
2016-12-17T10:30:11.557Z,16.64
2016-12-17T10:31:11.442Z,16.64
2016-12-17T10:32:13.005Z,16.64
2016-12-17T10:33:12.993Z,16.64
2016-12-17T10:34:13.519Z,16.66
2016-12-17T10:35:13.889Z,16.64
2016-12-17T10:36:12.810Z,16.65
2016-12-17T10:37:12.368Z,16.65
2016-12-17T10:38:13.194Z,17.19
2016-12-17T10:39:16.986Z,16.70
2016-12-17T10:40:12.717Z,16.68
2016-12-17T10:41:13.329Z,16.69
2016-12-17T10:42:15.201Z,16.67
2016-12-17T10:43:14.074Z,16.68
2016-12-17T10:44:13.929Z,16.68
2016-12-17T10:45:13.554Z,16.68
2016-12-17T10:46:13.424Z,16.68
2016-12-17T10:47:13.977Z,16.68
2016-12-17T10:48:13.035Z,17.23
2016-12-17T10:49:13.786Z,17.29
2016-12-17T10:50:12.767Z,16.93
2016-12-17T10:51:12.899Z,16.77
2016-12-17T10:52:13.946Z,16.74
2016-12-17T10:53:11.472Z,16.72
2016-12-17T10:54:13.488Z,16.73
2016-12-17T10:55:13.805Z,16.78
2016-12-17T10:56:13.507Z,16.71
2016-12-17T10:57:13.478Z,16.70
2016-12-17T10:58:12.719Z,16.70
2016-12-17T10:59:12.072Z,16.70
2016-12-17T11:00:10.317Z,16.70
2016-12-17T11:01:10.360Z,16.71
2016-12-17T11:02:12.279Z,16.70
2016-12-17T11:03:15.256Z,16.71
2016-12-17T11:04:13.115Z,16.72
2016-12-17T11:05:13.175Z,16.72
2016-12-17T11:06:12.842Z,16.72
2016-12-17T11:07:12.971Z,16.72
2016-12-17T11:08:13.287Z,16.71
2016-12-17T11:09:13.822Z,16.72
2016-12-17T11:10:14.777Z,16.72
2016-12-17T11:11:11.229Z,16.71
2016-12-17T11:12:14.039Z,16.72
2016-12-17T11:13:14.611Z,16.75
2016-12-17T11:14:12.951Z,16.74
2016-12-17T11:15:14.035Z,16.72
2016-12-17T11:16:13.536Z,16.72
2016-12-17T11:17:14.486Z,16.73
2016-12-17T11:18:13.847Z,16.72
2016-12-17T11:19:13.467Z,16.76
2016-12-17T11:20:13.669Z,16.73
2016-12-17T11:21:14.706Z,16.73
2016-12-17T11:22:13.744Z,16.74
2016-12-17T11:23:14.642Z,16.73
2016-12-17T11:24:11.204Z,16.73
2016-12-17T11:25:13.310Z,16.76
2016-12-17T11:26:11.869Z,16.74
2016-12-17T11:27:12.516Z,16.75
2016-12-17T11:28:12.818Z,16.74
2016-12-17T11:29:14.737Z,16.74
2016-12-17T11:30:14.667Z,16.75
2016-12-17T11:31:12.864Z,16.76
2016-12-17T11:32:13.375Z,16.75
2016-12-17T11:33:13.863Z,16.83
2016-12-17T11:34:11.822Z,16.75
2016-12-17T11:35:09.696Z,17.29
2016-12-17T11:36:12.485Z,17.34
2016-12-17T11:37:09.449Z,16.84
2016-12-17T11:38:13.712Z,16.79
2016-12-17T11:39:10.380Z,16.78
2016-12-17T11:40:13.359Z,16.81
2016-12-17T11:41:13.881Z,16.86
2016-12-17T11:42:13.731Z,16.94
2016-12-17T11:43:13.707Z,16.82
2016-12-17T11:44:14.516Z,16.79
2016-12-17T11:45:13.911Z,16.82
2016-12-17T11:46:11.958Z,16.77
2016-12-17T11:47:11.683Z,17.29
2016-12-17T11:48:13.394Z,16.88
2016-12-17T11:49:13.459Z,16.80
2016-12-17T11:50:14.068Z,16.79
2016-12-17T11:51:13.366Z,16.81
2016-12-17T11:52:10.995Z,16.77
2016-12-17T11:53:13.184Z,16.78
2016-12-17T11:54:15.033Z,16.78
2016-12-17T11:55:12.716Z,16.78
2016-12-17T11:56:10.512Z,16.78
2016-12-17T11:57:14.453Z,16.78
2016-12-17T11:58:13.262Z,16.83
2016-12-17T11:59:10.774Z,16.78
2016-12-17T12:00:13.339Z,16.78
2016-12-17T12:01:12.429Z,16.78
2016-12-17T12:02:15.581Z,16.78
2016-12-17T12:03:10.084Z,16.78
2016-12-17T12:04:12.820Z,16.78
2016-12-17T12:05:12.725Z,16.78
2016-12-17T12:06:14.045Z,16.78
2016-12-17T12:07:13.488Z,16.82
2016-12-17T12:08:14.054Z,16.84
2016-12-17T12:09:14.106Z,16.77
2016-12-17T12:10:13.041Z,16.79
2016-12-17T12:11:13.093Z,16.79
2016-12-17T12:12:13.494Z,16.78
2016-12-17T12:13:13.981Z,16.79
2016-12-17T12:14:13.079Z,16.78
2016-12-17T12:15:14.105Z,16.87
2016-12-17T12:16:11.618Z,17.34
2016-12-17T12:17:13.251Z,17.38
2016-12-17T12:18:13.618Z,17.41
2016-12-17T12:19:14.032Z,17.42
2016-12-17T12:20:13.932Z,16.90
2016-12-17T12:21:11.963Z,16.85
2016-12-17T12:22:13.135Z,17.00
2016-12-17T12:23:14.986Z,16.87
2016-12-17T12:24:13.191Z,16.84
2016-12-17T12:25:11.938Z,16.82
2016-12-17T12:26:13.382Z,16.82
2016-12-17T12:27:13.017Z,16.81
2016-12-17T12:28:12.996Z,16.81
2016-12-17T12:29:13.268Z,16.84
2016-12-17T12:30:13.495Z,16.81
2016-12-17T12:31:14.031Z,16.84
2016-12-17T12:32:13.148Z,16.85
2016-12-17T12:33:12.993Z,17.02
2016-12-17T12:34:11.442Z,16.86
2016-12-17T12:35:13.074Z,17.39
2016-12-17T12:36:13.548Z,17.10
2016-12-17T12:37:12.656Z,16.89
2016-12-17T12:38:15.725Z,16.86
2016-12-17T12:39:12.882Z,16.84
2016-12-17T12:40:15.206Z,16.84
2016-12-17T12:41:13.180Z,16.83
2016-12-17T12:42:14.020Z,16.82
2016-12-17T12:43:10.818Z,16.83
2016-12-17T12:44:13.600Z,16.86
2016-12-17T12:45:16.024Z,16.81
2016-12-17T12:46:13.446Z,16.83
2016-12-17T12:47:13.740Z,16.90
2016-12-17T12:48:09.072Z,16.81
2016-12-17T12:49:13.156Z,16.82
2016-12-17T12:50:12.923Z,16.82
2016-12-17T12:51:12.640Z,16.81
2016-12-17T12:52:12.186Z,16.83